sensor_id;sensor_type;location;lat;lon;timestamp;P1;durP1;ratioP1;P2;durP2;ratioP2
57535;SDS011;43361;49.790;8.960;2022-11-11T00:03:22;1.40;;;0.60;;
57535;SDS011;43361;49.790;8.960;2022-11-11T00:13:23;2.25;;;0.90;;
57535;SDS011;43361;49.790;8.960;2022-11-11T00:23:25;1.50;;;0.68;;
57535;SDS011;43361;49.790;8.960;2022-11-11T00:33:44;3.78;;;0.70;;
57535;SDS011;43361;49.790;8.960;2022-11-11T00:43:46;2.58;;;0.95;;
57535;SDS011;43361;49.790;8.960;2022-11-11T00:53:46;4.05;;;1.00;;
57535;SDS011;43361;49.790;8.960;2022-11-11T01:03:48;2.55;;;0.85;;
57535;SDS011;43361;49.790;8.960;2022-11-11T01:13:49;1.70;;;0.68;;
57535;SDS011;43361;49.790;8.960;2022-11-11T01:23:51;1.45;;;0.73;;
57535;SDS011;43361;49.790;8.960;2022-11-11T01:33:52;1.42;;;0.75;;
57535;SDS011;43361;49.790;8.960;2022-11-11T01:43:54;3.40;;;0.90;;
57535;SDS011;43361;49.790;8.960;2022-11-11T01:53:55;1.58;;;0.70;;
57535;SDS011;43361;49.790;8.960;2022-11-11T02:03:57;2.47;;;0.75;;
57535;SDS011;43361;49.790;8.960;2022-11-11T02:14:18;1.63;;;0.63;;
57535;SDS011;43361;49.790;8.960;2022-11-11T02:24:40;2.13;;;0.65;;
57535;SDS011;43361;49.790;8.960;2022-11-11T02:34:41;1.52;;;0.80;;
57535;SDS011;43361;49.790;8.960;2022-11-11T02:44:42;2.65;;;0.65;;
57535;SDS011;43361;49.790;8.960;2022-11-11T02:54:43;1.40;;;0.70;;
57535;SDS011;43361;49.790;8.960;2022-11-11T03:04:45;1.30;;;0.68;;
57535;SDS011;43361;49.790;8.960;2022-11-11T03:14:45;2.05;;;0.70;;
57535;SDS011;43361;49.790;8.960;2022-11-11T03:24:47;2.20;;;0.70;;
57535;SDS011;43361;49.790;8.960;2022-11-11T03:45:08;1.73;;;0.70;;
57535;SDS011;43361;49.790;8.960;2022-11-11T03:55:08;1.50;;;0.60;;
57535;SDS011;43361;49.790;8.960;2022-11-11T04:05:10;1.30;;;0.70;;
57535;SDS011;43361;49.790;8.960;2022-11-11T04:15:29;1.33;;;0.50;;
57535;SDS011;43361;49.790;8.960;2022-11-11T04:25:50;2.80;;;0.77;;
57535;SDS011;43361;49.790;8.960;2022-11-11T04:35:52;1.30;;;0.70;;
57535;SDS011;43361;49.790;8.960;2022-11-11T04:45:55;1.15;;;0.60;;
57535;SDS011;43361;49.790;8.960;2022-11-11T04:55:56;0.90;;;0.50;;
57535;SDS011;43361;49.790;8.960;2022-11-11T05:06:17;1.33;;;0.60;;
57535;SDS011;43361;49.790;8.960;2022-11-11T05:16:37;1.35;;;0.50;;
57535;SDS011;43361;49.790;8.960;2022-11-11T05:26:58;1.83;;;0.57;;
57535;SDS011;43361;49.790;8.960;2022-11-11T05:36:58;1.00;;;0.60;;
57535;SDS011;43361;49.790;8.960;2022-11-11T05:47:00;1.02;;;0.60;;
57535;SDS011;43361;49.790;8.960;2022-11-11T05:57:00;0.70;;;0.40;;
57535;SDS011;43361;49.790;8.960;2022-11-11T06:07:02;0.77;;;0.40;;
57535;SDS011;43361;49.790;8.960;2022-11-11T06:17:03;1.48;;;0.40;;
57535;SDS011;43361;49.790;8.960;2022-11-11T06:27:04;0.88;;;0.50;;
57535;SDS011;43361;49.790;8.960;2022-11-11T06:37:05;1.30;;;0.50;;
57535;SDS011;43361;49.790;8.960;2022-11-11T06:47:06;2.25;;;0.65;;
57535;SDS011;43361;49.790;8.960;2022-11-11T06:57:07;8.40;;;1.77;;
57535;SDS011;43361;49.790;8.960;2022-11-11T07:07:08;16.70;;;2.45;;
57535;SDS011;43361;49.790;8.960;2022-11-11T07:17:09;8.30;;;2.03;;
57535;SDS011;43361;49.790;8.960;2022-11-11T07:27:11;10.35;;;2.55;;
57535;SDS011;43361;49.790;8.960;2022-11-11T07:37:11;9.52;;;2.50;;
57535;SDS011;43361;49.790;8.960;2022-11-11T07:47:13;14.27;;;3.03;;
57535;SDS011;43361;49.790;8.960;2022-11-11T07:57:13;11.75;;;3.40;;
57535;SDS011;43361;49.790;8.960;2022-11-11T08:07:15;10.85;;;3.13;;
57535;SDS011;43361;49.790;8.960;2022-11-11T08:17:15;9.25;;;2.83;;
57535;SDS011;43361;49.790;8.960;2022-11-11T08:27:17;10.25;;;2.97;;
57535;SDS011;43361;49.790;8.960;2022-11-11T08:37:17;10.13;;;3.00;;
57535;SDS011;43361;49.790;8.960;2022-11-11T08:47:19;9.43;;;2.80;;
57535;SDS011;43361;49.790;8.960;2022-11-11T08:57:21;7.40;;;2.42;;
57535;SDS011;43361;49.790;8.960;2022-11-11T09:07:23;15.30;;;2.88;;
57535;SDS011;43361;49.790;8.960;2022-11-11T09:17:23;38.47;;;6.63;;
57535;SDS011;43361;49.790;8.960;2022-11-11T09:27:25;22.35;;;4.35;;
57535;SDS011;43361;49.790;8.960;2022-11-11T09:37:25;15.40;;;4.30;;
57535;SDS011;43361;49.790;8.960;2022-11-11T09:47:28;21.27;;;4.07;;
57535;SDS011;43361;49.790;8.960;2022-11-11T09:57:33;25.98;;;4.35;;
57535;SDS011;43361;49.790;8.960;2022-11-11T10:07:37;21.73;;;4.20;;
57535;SDS011;43361;49.790;8.960;2022-11-11T10:17:39;19.30;;;3.95;;
57535;SDS011;43361;49.790;8.960;2022-11-11T10:27:43;25.08;;;4.00;;
57535;SDS011;43361;49.790;8.960;2022-11-11T10:37:44;10.35;;;3.20;;
57535;SDS011;43361;49.790;8.960;2022-11-11T10:47:46;12.07;;;3.33;;
57535;SDS011;43361;49.790;8.960;2022-11-11T10:57:51;14.88;;;3.33;;
57535;SDS011;43361;49.790;8.960;2022-11-11T11:07:54;17.17;;;3.20;;
57535;SDS011;43361;49.790;8.960;2022-11-11T11:17:57;8.13;;;2.30;;
57535;SDS011;43361;49.790;8.960;2022-11-11T11:28:05;28.80;;;4.07;;
57535;SDS011;43361;49.790;8.960;2022-11-11T11:38:07;14.23;;;3.38;;
57535;SDS011;43361;49.790;8.960;2022-11-11T11:48:12;8.77;;;2.95;;
57535;SDS011;43361;49.790;8.960;2022-11-11T11:58:19;15.93;;;3.35;;
57535;SDS011;43361;49.790;8.960;2022-11-11T12:08:29;17.60;;;3.15;;
57535;SDS011;43361;49.790;8.960;2022-11-11T12:18:39;14.40;;;3.33;;
57535;SDS011;43361;49.790;8.960;2022-11-11T12:28:50;17.38;;;2.65;;
57535;SDS011;43361;49.790;8.960;2022-11-11T12:38:54;18.65;;;2.85;;
57535;SDS011;43361;49.790;8.960;2022-11-11T12:49:00;7.70;;;2.40;;
57535;SDS011;43361;49.790;8.960;2022-11-11T12:59:03;15.52;;;2.70;;
57535;SDS011;43361;49.790;8.960;2022-11-11T13:09:19;10.88;;;2.17;;
57535;SDS011;43361;49.790;8.960;2022-11-11T13:19:23;16.20;;;2.53;;
57535;SDS011;43361;49.790;8.960;2022-11-11T13:39:45;10.77;;;2.97;;
57535;SDS011;43361;49.790;8.960;2022-11-11T13:49:49;7.45;;;2.00;;
57535;SDS011;43361;49.790;8.960;2022-11-11T13:59:54;6.90;;;1.92;;
57535;SDS011;43361;49.790;8.960;2022-11-11T14:09:57;6.82;;;2.75;;
57535;SDS011;43361;49.790;8.960;2022-11-11T14:30:35;8.30;;;2.10;;
57535;SDS011;43361;49.790;8.960;2022-11-11T14:40:36;10.80;;;2.42;;
57535;SDS011;43361;49.790;8.960;2022-11-11T14:50:41;8.15;;;2.40;;
57535;SDS011;43361;49.790;8.960;2022-11-11T15:00:45;10.48;;;2.08;;
57535;SDS011;43361;49.790;8.960;2022-11-11T15:10:58;19.42;;;1.88;;
57535;SDS011;43361;49.790;8.960;2022-11-11T15:21:04;12.90;;;2.30;;
57535;SDS011;43361;49.790;8.960;2022-11-11T15:31:09;20.05;;;4.50;;
57535;SDS011;43361;49.790;8.960;2022-11-11T15:41:21;13.55;;;4.68;;
57535;SDS011;43361;49.790;8.960;2022-11-11T15:51:27;22.33;;;5.53;;
57535;SDS011;43361;49.790;8.960;2022-11-11T16:01:29;22.23;;;5.32;;
57535;SDS011;43361;49.790;8.960;2022-11-11T16:11:30;19.05;;;5.20;;
57535;SDS011;43361;49.790;8.960;2022-11-11T16:21:34;22.98;;;5.47;;
57535;SDS011;43361;49.790;8.960;2022-11-11T16:31:36;22.40;;;5.20;;
57535;SDS011;43361;49.790;8.960;2022-11-11T16:41:41;15.82;;;5.55;;
57535;SDS011;43361;49.790;8.960;2022-11-11T16:51:42;25.02;;;5.68;;
57535;SDS011;43361;49.790;8.960;2022-11-11T17:01:44;17.25;;;5.40;;
57535;SDS011;43361;49.790;8.960;2022-11-11T17:11:46;18.88;;;6.22;;
57535;SDS011;43361;49.790;8.960;2022-11-11T17:21:47;19.25;;;5.25;;
57535;SDS011;43361;49.790;8.960;2022-11-11T17:31:48;20.67;;;5.22;;
57535;SDS011;43361;49.790;8.960;2022-11-11T17:41:49;19.83;;;5.68;;
57535;SDS011;43361;49.790;8.960;2022-11-11T17:51:50;17.83;;;5.75;;
57535;SDS011;43361;49.790;8.960;2022-11-11T18:01:52;15.07;;;4.93;;
57535;SDS011;43361;49.790;8.960;2022-11-11T18:11:52;14.88;;;4.63;;
57535;SDS011;43361;49.790;8.960;2022-11-11T18:21:54;11.77;;;4.80;;
57535;SDS011;43361;49.790;8.960;2022-11-11T18:31:54;16.17;;;5.10;;
57535;SDS011;43361;49.790;8.960;2022-11-11T18:41:56;17.38;;;4.95;;
57535;SDS011;43361;49.790;8.960;2022-11-11T18:51:56;16.80;;;4.82;;
57535;SDS011;43361;49.790;8.960;2022-11-11T19:01:58;16.52;;;5.38;;
57535;SDS011;43361;49.790;8.960;2022-11-11T19:11:59;17.65;;;4.25;;
57535;SDS011;43361;49.790;8.960;2022-11-11T19:22:00;15.82;;;5.10;;
57535;SDS011;43361;49.790;8.960;2022-11-11T19:32:01;12.57;;;4.53;;
57535;SDS011;43361;49.790;8.960;2022-11-11T19:42:03;12.80;;;4.28;;
57535;SDS011;43361;49.790;8.960;2022-11-11T19:52:03;12.52;;;4.28;;
57535;SDS011;43361;49.790;8.960;2022-11-11T20:02:05;13.70;;;4.32;;
57535;SDS011;43361;49.790;8.960;2022-11-11T20:12:06;11.43;;;4.05;;
57535;SDS011;43361;49.790;8.960;2022-11-11T20:22:07;9.07;;;4.15;;
57535;SDS011;43361;49.790;8.960;2022-11-11T20:32:10;10.82;;;4.32;;
57535;SDS011;43361;49.790;8.960;2022-11-11T20:42:11;8.02;;;3.40;;
57535;SDS011;43361;49.790;8.960;2022-11-11T20:52:12;11.68;;;3.65;;
57535;SDS011;43361;49.790;8.960;2022-11-11T21:02:14;9.93;;;3.83;;
57535;SDS011;43361;49.790;8.960;2022-11-11T21:12:14;8.20;;;3.38;;
57535;SDS011;43361;49.790;8.960;2022-11-11T21:22:16;11.38;;;3.50;;
57535;SDS011;43361;49.790;8.960;2022-11-11T21:32:16;10.55;;;3.47;;
57535;SDS011;43361;49.790;8.960;2022-11-11T21:42:18;12.25;;;3.60;;
57535;SDS011;43361;49.790;8.960;2022-11-11T21:52:19;8.40;;;3.55;;
57535;SDS011;43361;49.790;8.960;2022-11-11T22:02:20;7.05;;;3.00;;
57535;SDS011;43361;49.790;8.960;2022-11-11T22:12:21;7.00;;;3.08;;
57535;SDS011;43361;49.790;8.960;2022-11-11T22:22:22;7.43;;;3.42;;
57535;SDS011;43361;49.790;8.960;2022-11-11T22:32:23;7.03;;;3.25;;
57535;SDS011;43361;49.790;8.960;2022-11-11T22:42:25;6.40;;;3.17;;
57535;SDS011;43361;49.790;8.960;2022-11-11T22:52:26;7.03;;;3.17;;
57535;SDS011;43361;49.790;8.960;2022-11-11T23:02:28;9.32;;;3.20;;
57535;SDS011;43361;49.790;8.960;2022-11-11T23:12:28;6.78;;;3.03;;
57535;SDS011;43361;49.790;8.960;2022-11-11T23:22:30;7.75;;;2.85;;
57535;SDS011;43361;49.790;8.960;2022-11-11T23:32:30;7.65;;;2.80;;
57535;SDS011;43361;49.790;8.960;2022-11-11T23:42:32;5.80;;;2.80;;
57535;SDS011;43361;49.790;8.960;2022-11-11T23:52:32;5.72;;;2.38;;
